Řízení letového provozu České republiky
Letiste: LKCV Aktualizace: 23.07.2016 16:08:06  UTC
 METAR LKCV 23.07. 16:00 ...
METAR LKCV 231600Z 17006KT CAVOK 28/16 Q1016 NOSIG=
 TAF LKCV 23.07. 11:00 ...
TAF LKCV 231100Z 2312/2412 VRB02KT CAVOK      TEMPO 2312/2318 06008KT SCT050TCU      TEMPO 2401/2409 SCT034=